createdAt,value
2018-06-17T00:02:33.696Z,64.30
2018-06-17T00:07:30.288Z,64.80
2018-06-17T00:09:58.518Z,64.90
2018-06-17T00:12:26.839Z,64.90
2018-06-17T00:14:55.224Z,65.10
2018-06-17T00:17:23.499Z,66.20
2018-06-17T00:19:51.824Z,65.50
2018-06-17T00:22:20.041Z,65.90
2018-06-17T00:24:48.302Z,66.00
2018-06-17T00:29:44.627Z,66.20
2018-06-17T00:32:13.079Z,66.40
2018-06-17T00:34:41.518Z,66.20
2018-06-17T00:37:10.811Z,66.40
2018-06-17T00:39:39.187Z,66.40
2018-06-17T00:42:07.505Z,66.80
2018-06-17T00:44:35.906Z,66.90
2018-06-17T00:47:04.467Z,67.40
2018-06-17T00:49:33.114Z,67.60
2018-06-17T00:52:01.399Z,67.80
2018-06-17T00:54:29.704Z,68.10
2018-06-17T00:57:09.513Z,68.20
2018-06-17T00:59:37.914Z,68.50
2018-06-17T01:02:07.142Z,68.70
2018-06-17T01:04:35.476Z,69.20
2018-06-17T01:09:32.026Z,69.60
2018-06-17T01:12:00.303Z,69.90
2018-06-17T01:14:28.531Z,70.20
2018-06-17T01:21:52.731Z,70.80
2018-06-17T01:24:21.087Z,70.90
2018-06-17T01:29:18.066Z,70.90
2018-06-17T01:34:14.469Z,71.30
2018-06-17T01:36:42.858Z,71.30
2018-06-17T01:39:11.046Z,71.70
2018-06-17T01:41:39.306Z,71.90
2018-06-17T01:46:37.457Z,72.40
2018-06-17T01:49:05.747Z,72.70
2018-06-17T01:51:34.136Z,73.10
2018-06-17T01:54:02.982Z,73.50
2018-06-17T01:56:31.220Z,73.60
2018-06-17T01:58:59.434Z,73.80
2018-06-17T02:01:27.999Z,74.20
2018-06-17T02:04:02.507Z,74.50
2018-06-17T02:06:36.181Z,74.90
2018-06-17T02:09:12.290Z,75.50
2018-06-17T02:11:44.565Z,75.80
2018-06-17T02:14:18.205Z,76.00
2018-06-17T02:16:46.553Z,76.50
2018-06-17T02:19:15.019Z,76.80
2018-06-17T02:21:43.343Z,77.00
2018-06-17T02:24:11.790Z,77.20
2018-06-17T02:26:40.067Z,77.50
2018-06-17T02:29:08.519Z,77.90
2018-06-17T02:31:38.911Z,79.20
2018-06-17T02:34:07.155Z,78.80
2018-06-17T02:36:35.439Z,78.90
2018-06-17T02:39:04.544Z,79.30
2018-06-17T02:41:32.848Z,79.50
2018-06-17T02:44:01.547Z,79.80
2018-06-17T02:47:34.715Z,80.30
2018-06-17T02:50:08.395Z,80.50
2018-06-17T02:52:42.087Z,80.70
2018-06-17T02:55:10.380Z,81.30
2018-06-17T02:57:40.462Z,81.70
2018-06-17T03:00:09.544Z,82.10
2018-06-17T03:02:37.806Z,82.40
2018-06-17T03:05:06.030Z,83.00
2018-06-17T03:10:02.302Z,83.40
2018-06-17T03:17:27.489Z,84.00
2018-06-17T03:19:55.727Z,83.90
2018-06-17T03:22:23.998Z,84.20
2018-06-17T03:24:57.642Z,84.40
2018-06-17T03:27:32.976Z,84.60
2018-06-17T03:30:06.446Z,84.60
2018-06-17T03:35:13.762Z,84.70
2018-06-17T03:37:42.001Z,84.70
2018-06-17T03:40:10.338Z,84.60
2018-06-17T03:42:38.573Z,84.80
2018-06-17T03:45:06.819Z,84.80
2018-06-17T03:47:35.050Z,84.80
2018-06-17T03:50:03.994Z,84.70
2018-06-17T03:52:32.402Z,84.80
2018-06-17T03:57:28.739Z,84.80
2018-06-17T03:59:57.018Z,84.60
2018-06-17T04:02:25.219Z,84.40
2018-06-17T04:04:58.838Z,84.40
2018-06-17T04:07:27.045Z,84.20
2018-06-17T04:09:55.520Z,84.30
2018-06-17T04:12:23.835Z,83.90
2018-06-17T04:14:52.070Z,83.70
2018-06-17T04:17:20.438Z,83.40
2018-06-17T04:19:48.640Z,83.20
2018-06-17T04:22:17.370Z,83.10
2018-06-17T04:24:45.656Z,82.80
2018-06-17T04:27:13.928Z,82.90
2018-06-17T04:29:42.232Z,82.50
2018-06-17T04:32:11.458Z,82.30
2018-06-17T04:34:39.646Z,82.30
2018-06-17T04:37:07.924Z,82.00
2018-06-17T04:39:36.754Z,81.90
2018-06-17T04:42:07.462Z,81.70
2018-06-17T04:44:36.084Z,81.50
2018-06-17T04:47:06.435Z,81.00
2018-06-17T04:49:34.638Z,80.50
2018-06-17T04:52:02.895Z,80.10
2018-06-17T04:54:31.168Z,79.50
2018-06-17T04:57:00.019Z,79.10
2018-06-17T04:59:28.807Z,78.90
2018-06-17T05:01:57.030Z,78.40
2018-06-17T05:04:25.214Z,78.10
2018-06-17T05:09:23.663Z,77.60
2018-06-17T05:11:51.984Z,76.90
2018-06-17T05:14:20.197Z,76.00
2018-06-17T05:16:50.048Z,75.20
2018-06-17T05:19:18.294Z,75.20
2018-06-17T05:21:46.519Z,75.20
2018-06-17T05:24:14.741Z,75.50
2018-06-17T05:26:43.069Z,75.50
2018-06-17T05:29:11.274Z,75.80
2018-06-17T05:31:39.509Z,75.70
2018-06-17T05:34:08.523Z,75.80
2018-06-17T05:36:37.882Z,74.80
2018-06-17T05:41:36.666Z,74.60
2018-06-17T05:44:05.755Z,74.40
2018-06-17T05:46:34.097Z,74.70
2018-06-17T05:49:02.286Z,74.60
2018-06-17T05:51:30.562Z,74.90
2018-06-17T05:53:58.827Z,74.70
2018-06-17T05:56:27.042Z,74.50
2018-06-17T05:58:55.301Z,75.20
2018-06-17T06:01:23.550Z,74.40
2018-06-17T06:03:52.083Z,74.20
2018-06-17T06:06:20.330Z,74.30
2018-06-17T06:08:48.691Z,74.30
2018-06-17T06:11:17.036Z,74.70
2018-06-17T06:13:45.423Z,74.40
2018-06-17T06:21:41.175Z,74.70
2018-06-17T06:24:09.486Z,75.30
2018-06-17T06:26:37.735Z,75.00
2018-06-17T06:29:06.060Z,74.90
2018-06-17T06:31:34.300Z,74.90
2018-06-17T06:34:02.621Z,74.30
2018-06-17T06:36:30.848Z,74.20
2018-06-17T06:38:59.044Z,74.50
2018-06-17T06:41:30.511Z,74.40
2018-06-17T06:43:59.351Z,72.50
2018-06-17T06:46:28.194Z,72.60
2018-06-17T06:51:24.447Z,72.50
2018-06-17T06:53:52.645Z,72.20
2018-06-17T06:56:20.918Z,72.20
2018-06-17T06:58:49.264Z,72.40
2018-06-17T07:01:29.054Z,72.10
2018-06-17T07:04:08.813Z,72.50
2018-06-17T07:06:48.363Z,72.70
2018-06-17T07:09:28.083Z,72.40
2018-06-17T07:11:56.326Z,71.30
2018-06-17T07:14:24.554Z,72.00
2018-06-17T07:17:04.264Z,71.50
2018-06-17T07:19:32.527Z,71.70
2018-06-17T07:22:00.787Z,71.00
2018-06-17T07:24:29.005Z,70.90
2018-06-17T07:28:10.243Z,70.20
2018-06-17T07:30:38.556Z,70.90
2018-06-17T07:33:06.841Z,71.10
2018-06-17T07:35:35.071Z,71.60
2018-06-17T07:38:03.290Z,70.60
2018-06-17T07:40:48.690Z,70.50
2018-06-17T07:43:17.239Z,70.00
2018-06-17T07:45:45.928Z,69.90
2018-06-17T07:48:26.070Z,69.60
2018-06-17T07:51:05.904Z,69.70
2018-06-17T07:53:34.103Z,69.60
2018-06-17T07:56:02.407Z,70.00
2018-06-17T07:58:31.484Z,70.50
2018-06-17T08:00:59.859Z,70.70
2018-06-17T08:03:28.189Z,71.10
2018-06-17T08:05:57.986Z,71.10
2018-06-17T08:08:26.394Z,70.90
2018-06-17T08:13:20.950Z,70.20
2018-06-17T08:15:49.266Z,70.50
2018-06-17T08:18:18.214Z,71.00
2018-06-17T08:20:47.407Z,70.80
2018-06-17T08:23:17.385Z,71.60
2018-06-17T08:25:45.622Z,71.40
2018-06-17T08:28:13.965Z,71.70
2018-06-17T08:30:44.996Z,72.30
2018-06-17T08:33:13.290Z,72.90
2018-06-17T08:35:41.682Z,73.10
2018-06-17T08:38:09.984Z,73.60
2018-06-17T08:40:38.320Z,73.00
2018-06-17T08:43:06.723Z,73.00
2018-06-17T08:45:35.134Z,72.90
2018-06-17T08:48:03.685Z,73.20
2018-06-17T08:50:32.020Z,72.90
2018-06-17T08:53:00.426Z,72.60
2018-06-17T08:55:28.670Z,72.00
2018-06-17T08:57:57.041Z,71.90
2018-06-17T09:00:29.334Z,71.30
2018-06-17T09:02:58.218Z,72.10
2018-06-17T09:07:54.704Z,73.10
2018-06-17T09:10:23.471Z,73.00
2018-06-17T09:12:52.496Z,73.00
2018-06-17T09:15:20.921Z,72.90
2018-06-17T09:17:55.387Z,73.10
2018-06-17T09:20:23.791Z,73.40
2018-06-17T09:22:52.559Z,73.30
2018-06-17T09:25:20.927Z,72.90
2018-06-17T09:27:50.198Z,73.00
2018-06-17T09:30:18.650Z,72.80
2018-06-17T09:32:46.983Z,72.30
2018-06-17T09:35:15.759Z,72.20
2018-06-17T09:37:44.147Z,72.40
2018-06-17T09:40:12.899Z,72.40
2018-06-17T09:42:41.187Z,71.90
2018-06-17T09:47:38.971Z,70.40
2018-06-17T09:50:08.191Z,70.80
2018-06-17T09:52:36.562Z,71.10
2018-06-17T09:55:07.552Z,71.20
2018-06-17T09:57:37.016Z,70.90
2018-06-17T10:00:06.592Z,70.90
2018-06-17T10:02:36.264Z,70.10
2018-06-17T10:05:04.759Z,70.30
2018-06-17T10:07:33.206Z,70.00
2018-06-17T10:12:35.004Z,69.80
2018-06-17T10:15:03.263Z,69.00
2018-06-17T10:17:31.661Z,68.20
2018-06-17T10:20:00.019Z,68.80
2018-06-17T10:22:28.304Z,68.50
2018-06-17T10:27:25.109Z,66.70
2018-06-17T10:29:54.570Z,66.20
2018-06-17T10:32:23.107Z,64.60
2018-06-17T10:34:51.966Z,64.60
2018-06-17T10:42:18.332Z,62.20
2018-06-17T10:44:49.973Z,62.50
2018-06-17T10:47:18.689Z,62.40
2018-06-17T10:49:47.027Z,61.90
2018-06-17T10:52:15.330Z,63.20
2018-06-17T10:54:43.592Z,64.00
2018-06-17T10:57:11.886Z,64.50
2018-06-17T10:59:40.337Z,64.00
2018-06-17T11:02:09.127Z,63.50
2018-06-17T11:04:37.577Z,62.80
2018-06-17T11:07:06.356Z,62.40
2018-06-17T11:09:34.675Z,62.30
2018-06-17T11:12:03.115Z,60.90
2018-06-17T11:14:31.804Z,60.10
2018-06-17T11:17:00.671Z,59.80
2018-06-17T11:19:29.271Z,59.30
2018-06-17T11:21:57.722Z,59.80
2018-06-17T11:24:26.314Z,60.80
2018-06-17T11:26:55.267Z,61.80
2018-06-17T11:29:23.779Z,62.30
2018-06-17T11:36:49.833Z,63.20
2018-06-17T11:39:18.075Z,63.70
2018-06-17T11:41:46.355Z,63.50
2018-06-17T11:44:14.625Z,64.10
2018-06-17T11:49:11.558Z,64.70
2018-06-17T11:51:40.097Z,64.70
2018-06-17T11:54:09.516Z,64.50
2018-06-17T11:56:38.683Z,64.90
2018-06-17T11:59:07.070Z,63.70
2018-06-17T12:01:37.028Z,63.90
2018-06-17T12:04:05.601Z,63.50
2018-06-17T12:06:36.002Z,62.80
2018-06-17T12:11:35.704Z,62.10
2018-06-17T12:14:04.394Z,62.70
2018-06-17T12:16:33.035Z,62.40
2018-06-17T12:21:30.631Z,61.70
2018-06-17T12:23:58.896Z,62.00
2018-06-17T12:26:28.513Z,60.90
2018-06-17T12:28:57.105Z,61.10
2018-06-17T12:31:25.631Z,61.30
2018-06-17T12:33:54.486Z,60.20
2018-06-17T12:36:23.119Z,60.10
2018-06-17T12:38:52.502Z,59.90
2018-06-17T12:41:20.712Z,58.50
2018-06-17T12:43:49.795Z,58.00
2018-06-17T12:46:18.189Z,57.20
2018-06-17T12:48:47.009Z,57.40
2018-06-17T12:51:16.807Z,57.00
2018-06-17T12:53:45.824Z,57.10
2018-06-17T12:56:15.139Z,58.20
2018-06-17T12:58:43.514Z,57.90
2018-06-17T13:01:11.903Z,58.10
2018-06-17T13:03:40.212Z,58.80
2018-06-17T13:06:08.506Z,59.20
2018-06-17T13:08:36.862Z,58.80
2018-06-17T13:11:05.488Z,59.20
2018-06-17T13:13:34.187Z,59.20
2018-06-17T13:16:02.406Z,59.80
2018-06-17T13:18:30.670Z,58.30
2018-06-17T13:20:59.016Z,57.20
2018-06-17T13:23:27.451Z,56.60
2018-06-17T13:25:55.914Z,56.90
2018-06-17T13:28:25.136Z,56.50
2018-06-17T13:30:55.820Z,55.60
2018-06-17T13:33:24.605Z,54.10
2018-06-17T13:35:54.351Z,53.80
2018-06-17T13:38:23.826Z,53.00
2018-06-17T13:43:22.773Z,53.40
2018-06-17T13:45:53.795Z,54.10
2018-06-17T13:48:22.535Z,53.40
2018-06-17T13:50:50.958Z,53.80
2018-06-17T13:53:20.264Z,53.90
2018-06-17T13:55:52.639Z,53.90
2018-06-17T13:58:21.186Z,53.90
2018-06-17T14:00:49.555Z,53.50
2018-06-17T14:05:48.520Z,53.10
2018-06-17T14:10:45.419Z,51.20
2018-06-17T14:15:42.306Z,50.50
2018-06-17T14:18:10.602Z,49.70
2018-06-17T14:20:39.021Z,48.10
2018-06-17T14:23:07.450Z,47.50
2018-06-17T14:25:35.763Z,47.00
2018-06-17T14:28:04.312Z,46.80
2018-06-17T14:30:33.062Z,47.20
2018-06-17T14:35:29.510Z,45.60
2018-06-17T14:37:58.305Z,44.80
2018-06-17T14:40:26.922Z,45.40
2018-06-17T14:45:35.230Z,46.40
2018-06-17T14:48:09.320Z,46.20
2018-06-17T14:53:12.595Z,47.00
2018-06-17T14:55:42.502Z,47.00
2018-06-17T14:58:10.708Z,47.20
2018-06-17T15:00:39.048Z,46.90
2018-06-17T15:03:07.331Z,46.60
2018-06-17T15:05:35.675Z,46.60
2018-06-17T15:08:04.050Z,46.30
2018-06-17T15:10:32.466Z,46.00
2018-06-17T15:13:01.107Z,45.80
2018-06-17T15:17:57.551Z,45.90
2018-06-17T15:20:27.025Z,46.10
2018-06-17T15:22:55.298Z,46.80
2018-06-17T15:25:23.866Z,47.10
2018-06-17T15:27:52.633Z,46.60
2018-06-17T15:30:21.833Z,45.80
2018-06-17T15:32:56.129Z,45.30
2018-06-17T15:35:30.925Z,44.20
2018-06-17T15:39:06.222Z,43.90
2018-06-17T15:41:34.619Z,43.60
2018-06-17T15:44:03.189Z,42.40
2018-06-17T15:46:31.561Z,41.70
2018-06-17T15:49:00.338Z,40.40
2018-06-17T15:51:29.548Z,39.20
2018-06-17T15:53:58.264Z,37.20
2018-06-17T15:56:28.104Z,37.30
2018-06-17T15:58:56.924Z,39.10
2018-06-17T16:03:54.135Z,40.60
2018-06-17T16:06:22.931Z,41.80
2018-06-17T16:08:51.901Z,43.10
2018-06-17T16:11:20.450Z,44.00
2018-06-17T16:13:54.527Z,43.70
2018-06-17T16:16:28.329Z,43.10
2018-06-17T16:19:02.698Z,42.90
2018-06-17T16:21:31.158Z,43.40
2018-06-17T16:23:59.777Z,44.10
2018-06-17T16:26:30.723Z,44.20
2018-06-17T16:28:59.184Z,44.30
2018-06-17T16:31:28.819Z,44.40
2018-06-17T16:33:57.647Z,44.90
2018-06-17T16:36:26.444Z,45.00
2018-06-17T16:38:55.113Z,44.60
2018-06-17T16:41:24.094Z,44.70
2018-06-17T16:43:52.608Z,44.50
2018-06-17T16:48:49.499Z,42.40
2018-06-17T16:53:56.949Z,40.30
2018-06-17T16:56:36.739Z,40.10
2018-06-17T16:59:11.283Z,40.70
2018-06-17T17:01:39.650Z,41.40
2018-06-17T17:06:39.932Z,40.90
2018-06-17T17:09:09.608Z,39.80
2018-06-17T17:14:08.602Z,37.80
2018-06-17T17:16:40.117Z,36.90
2018-06-17T17:19:08.443Z,36.70
2018-06-17T17:21:36.674Z,37.50
2018-06-17T17:24:05.195Z,37.70
2018-06-17T17:26:33.716Z,37.80
2018-06-17T17:29:02.036Z,38.50
2018-06-17T17:31:35.915Z,40.00
2018-06-17T17:34:09.679Z,40.80
2018-06-17T17:36:43.142Z,41.80
2018-06-17T17:39:17.334Z,42.50
2018-06-17T17:41:45.722Z,43.30
2018-06-17T17:44:15.291Z,43.60
2018-06-17T17:46:48.944Z,44.10
2018-06-17T17:49:18.143Z,44.40
2018-06-17T17:51:46.660Z,44.50
2018-06-17T17:54:15.469Z,44.90
2018-06-17T17:56:44.639Z,45.20
2018-06-17T17:59:13.527Z,45.40
2018-06-17T18:04:10.607Z,45.40
2018-06-17T18:06:38.904Z,45.60
2018-06-17T18:09:08.682Z,45.40
2018-06-17T18:11:38.204Z,45.10
2018-06-17T18:14:06.728Z,45.10
2018-06-17T18:16:35.222Z,44.80
2018-06-17T18:19:03.446Z,44.50
2018-06-17T18:21:31.698Z,43.60
2018-06-17T18:24:01.656Z,42.00
2018-06-17T18:26:35.519Z,40.60
2018-06-17T18:29:09.416Z,39.10
2018-06-17T18:31:43.765Z,39.10
2018-06-17T18:34:17.515Z,39.10
2018-06-17T18:39:13.741Z,41.30
2018-06-17T18:41:42.711Z,42.30
2018-06-17T18:44:11.289Z,43.30
2018-06-17T18:46:40.231Z,44.10
2018-06-17T18:49:09.259Z,45.00
2018-06-17T18:51:38.266Z,45.40
2018-06-17T18:54:07.710Z,45.70
2018-06-17T18:59:04.016Z,46.30
2018-06-17T19:01:33.927Z,46.40
2018-06-17T19:04:02.233Z,46.60
2018-06-17T19:06:32.240Z,46.90
2018-06-17T19:09:06.226Z,47.40
2018-06-17T19:11:40.062Z,47.60
2018-06-17T19:14:16.672Z,47.90
2018-06-17T19:16:50.425Z,48.20
2018-06-17T19:21:47.240Z,49.30
2018-06-17T19:24:16.034Z,49.00
2018-06-17T19:26:44.330Z,49.30
2018-06-17T19:29:12.605Z,49.40
2018-06-17T19:31:41.670Z,49.50
2018-06-17T19:34:11.105Z,49.50
2018-06-17T19:36:39.772Z,49.70
2018-06-17T19:41:36.911Z,50.00
2018-06-17T19:44:05.451Z,50.30
2018-06-17T19:46:33.724Z,50.30
2018-06-17T19:49:02.307Z,50.20
2018-06-17T19:52:39.840Z,50.10
2018-06-17T19:57:47.492Z,50.40
2018-06-17T20:00:35.190Z,50.70
2018-06-17T20:03:05.216Z,51.60
2018-06-17T20:05:33.975Z,51.10
2018-06-17T20:10:30.694Z,51.90
2018-06-17T20:12:59.270Z,51.40
2018-06-17T20:15:27.617Z,51.50
2018-06-17T20:17:57.905Z,51.30
2018-06-17T20:20:27.144Z,51.30
2018-06-17T20:22:55.565Z,51.40
2018-06-17T20:25:25.407Z,51.60
2018-06-17T20:27:53.671Z,51.80
2018-06-17T20:30:21.994Z,52.00
2018-06-17T20:32:55.954Z,52.20
2018-06-17T20:35:29.870Z,52.40
2018-06-17T20:38:03.723Z,52.40
2018-06-17T20:40:37.318Z,52.70
2018-06-17T20:43:11.871Z,52.70
2018-06-17T20:45:42.382Z,52.70
2018-06-17T20:48:10.830Z,52.80
2018-06-17T20:50:41.323Z,53.00
2018-06-17T20:53:09.830Z,53.50
2018-06-17T20:55:38.190Z,53.50
2018-06-17T21:00:34.944Z,54.10
2018-06-17T21:03:03.291Z,53.50
2018-06-17T21:05:31.782Z,53.50
2018-06-17T21:08:00.081Z,53.40
2018-06-17T21:10:28.462Z,53.60
2018-06-17T21:12:57.080Z,53.60
2018-06-17T21:15:25.555Z,54.00
2018-06-17T21:17:54.775Z,54.20
2018-06-17T21:20:28.651Z,54.50
2018-06-17T21:28:04.686Z,54.80
2018-06-17T21:30:32.956Z,54.70
2018-06-17T21:33:01.297Z,54.50
2018-06-17T21:35:29.547Z,54.50
2018-06-17T21:37:57.868Z,54.50
2018-06-17T21:40:26.195Z,54.70
2018-06-17T21:42:54.386Z,54.80
2018-06-17T21:45:22.678Z,55.00
2018-06-17T21:47:51.015Z,55.00
2018-06-17T21:50:19.318Z,55.20
2018-06-17T21:52:48.980Z,55.30
2018-06-17T21:55:17.625Z,55.30
2018-06-17T21:57:46.484Z,55.60
2018-06-17T22:00:15.187Z,55.70
2018-06-17T22:02:44.292Z,56.30
2018-06-17T22:05:12.999Z,56.60
2018-06-17T22:07:46.844Z,56.60
2018-06-17T22:10:21.156Z,57.00
2018-06-17T22:12:55.038Z,57.30
2018-06-17T22:15:29.051Z,57.30
2018-06-17T22:17:57.376Z,57.20
2018-06-17T22:20:26.689Z,57.40
2018-06-17T22:22:56.080Z,57.50
2018-06-17T22:25:27.305Z,57.50
2018-06-17T22:27:56.032Z,57.80
2018-06-17T22:30:24.982Z,57.70
2018-06-17T22:32:57.517Z,58.10
2018-06-17T22:35:27.328Z,58.40
2018-06-17T22:37:55.697Z,58.30
2018-06-17T22:40:23.936Z,58.50
2018-06-17T22:42:52.220Z,58.40
2018-06-17T22:45:20.446Z,58.40
2018-06-17T22:47:53.967Z,58.50
2018-06-17T22:50:22.430Z,58.80
2018-06-17T22:53:02.259Z,59.10
2018-06-17T22:55:30.507Z,58.90
2018-06-17T22:58:04.108Z,59.10
2018-06-17T23:00:37.991Z,59.20
2018-06-17T23:03:12.546Z,59.10
2018-06-17T23:05:46.431Z,59.40
2018-06-17T23:10:48.172Z,59.70
2018-06-17T23:13:17.699Z,60.50
2018-06-17T23:15:45.931Z,60.20
2018-06-17T23:18:15.187Z,60.60
2018-06-17T23:20:43.459Z,60.70
2018-06-17T23:23:11.663Z,60.70
2018-06-17T23:25:39.874Z,60.80
2018-06-17T23:28:08.181Z,61.00
2018-06-17T23:30:36.487Z,60.90
2018-06-17T23:33:04.769Z,60.80
2018-06-17T23:35:33.994Z,60.80
2018-06-17T23:40:30.425Z,61.10
2018-06-17T23:42:58.723Z,61.10
2018-06-17T23:45:27.041Z,61.00
2018-06-17T23:48:00.506Z,61.00
2018-06-17T23:50:34.196Z,61.30
2018-06-17T23:53:08.031Z,61.60
2018-06-17T23:55:41.765Z,61.90
2018-06-17T23:58:10.058Z,62.10
